Time;durP1;ratioP1;P1;durP2;ratioP2;P2;SDS_P1;SDS_P2;PMS_P1;PMS_P2;Temp;Humidity;BMP_temperature;BMP_pressure;BME280_temperature;BME280_humidity;BME280_pressure;Samples;Min_cycle;Max_cycle;Signal;HPM_P1;HPM_P2
2023/03/07 00:00:11;;;;;;;19.80;9.23;;;3.60;75.20;;;;;;5052398;28;20230;-72
2023/03/07 00:02:37;;;;;;;25.77;9.80;;;3.60;75.10;;;;;;5050708;28;20188;-74
2023/03/07 00:05:03;;;;;;;24.33;10.37;;;3.50;75.20;;;;;;5034368;28;20467;-74
2023/03/07 00:07:30;;;;;;;25.17;9.83;;;3.60;75.20;;;;;;5046437;28;20473;-73
2023/03/07 00:09:56;;;;;;;19.67;9.67;;;3.60;74.90;;;;;;5051086;28;20934;-72
2023/03/07 00:12:22;;;;;;;19.93;8.83;;;3.60;74.90;;;;;;5047437;28;20422;-72
2023/03/07 00:14:48;;;;;;;23.20;9.60;;;3.60;75.10;;;;;;5052228;28;20985;-72
2023/03/07 00:17:13;;;;;;;25.87;10.50;;;3.60;74.90;;;;;;5048819;28;20209;-73
2023/03/07 00:19:42;;;;;;;21.90;10.03;;;3.60;74.80;;;;;;5051612;28;20181;-71
2023/03/07 00:22:07;;;;;;;19.57;10.07;;;3.60;74.90;;;;;;5052434;28;20187;-72
2023/03/07 00:24:33;;;;;;;21.33;8.83;;;3.70;74.90;;;;;;5054274;28;20463;-72
2023/03/07 00:26:58;;;;;;;27.50;10.73;;;3.70;74.90;;;;;;5050088;28;20723;-73
2023/03/07 00:29:24;;;;;;;21.60;9.87;;;3.70;74.90;;;;;;5053207;28;20177;-72
2023/03/07 00:31:49;;;;;;;19.60;9.27;;;3.70;74.80;;;;;;5053212;28;20185;-73
2023/03/07 00:34:15;;;;;;;20.93;10.20;;;3.70;74.80;;;;;;5056888;28;20199;-74
2023/03/07 00:36:41;;;;;;;20.00;10.40;;;3.80;74.90;;;;;;5034601;28;20184;-73
2023/03/07 00:39:07;;;;;;;27.93;9.80;;;3.80;74.80;;;;;;5049466;28;20883;-72
2023/03/07 00:41:32;;;;;;;20.40;9.60;;;3.80;74.80;;;;;;5044907;28;20177;-72
2023/03/07 00:43:58;;;;;;;20.90;9.33;;;3.80;74.50;;;;;;5050239;28;21000;-72
2023/03/07 00:46:25;;;;;;;26.27;11.23;;;3.70;74.60;;;;;;5042445;28;20187;-73
2023/03/07 00:48:50;;;;;;;22.43;9.63;;;3.80;74.60;;;;;;5047784;28;20204;-72
2023/03/07 00:51:18;;;;;;;19.23;9.20;;;3.80;74.60;;;;;;5046556;28;20846;-71
2023/03/07 00:53:43;;;;;;;18.10;8.73;;;3.70;74.50;;;;;;5051616;28;20306;-72
2023/03/07 00:56:16;;;;;;;20.33;9.47;;;3.70;74.80;;;;;;5028257;28;20839;-72
2023/03/07 00:58:42;;;;;;;18.27;8.70;;;3.70;74.50;;;;;;5055168;28;20270;-72
2023/03/07 01:01:09;;;;;;;21.87;9.83;;;3.70;74.30;;;;;;5052317;28;20419;-71
2023/03/07 01:03:35;;;;;;;20.10;8.53;;;3.70;74.00;;;;;;5050696;28;20498;-72
2023/03/07 01:06:03;;;;;;;18.20;9.40;;;3.70;73.90;;;;;;5049732;28;20505;-74
2023/03/07 01:08:30;;;;;;;18.50;8.20;;;3.70;73.60;;;;;;5046572;28;20949;-73
2023/03/07 01:11:00;;;;;;;16.27;8.77;;;3.70;73.50;;;;;;5049663;28;20445;-73
2023/03/07 01:13:26;;;;;;;19.07;8.47;;;3.70;73.60;;;;;;5032875;28;20534;-74
2023/03/07 01:15:52;;;;;;;19.00;8.87;;;3.70;73.60;;;;;;5048549;28;20529;-73
2023/03/07 01:18:18;;;;;;;20.63;8.77;;;3.60;73.30;;;;;;5047040;28;20454;-73
2023/03/07 01:20:43;;;;;;;18.87;9.00;;;3.70;73.60;;;;;;5049409;28;20530;-72
2023/03/07 01:23:09;;;;;;;21.70;8.73;;;3.70;73.50;;;;;;5050074;28;20217;-71
2023/03/07 01:25:42;;;;;;;18.93;8.73;;;3.70;73.50;;;;;;5047093;28;20238;-71
2023/03/07 01:28:11;;;;;;;16.20;7.43;;;3.70;73.50;;;;;;5043379;28;20291;-73
2023/03/07 01:30:37;;;;;;;22.67;9.90;;;3.70;73.50;;;;;;5047322;28;20430;-73
2023/03/07 01:33:03;;;;;;;22.87;9.57;;;3.70;73.60;;;;;;5046566;28;20419;-72
2023/03/07 01:35:29;;;;;;;16.63;8.70;;;3.70;73.60;;;;;;5045282;28;20540;-73
2023/03/07 01:37:54;;;;;;;17.23;8.00;;;3.70;73.60;;;;;;5040822;28;20235;-73
2023/03/07 01:40:22;;;;;;;24.27;9.67;;;3.70;73.60;;;;;;5043519;28;20543;-73
2023/03/07 01:42:48;;;;;;;15.03;8.03;;;3.70;73.70;;;;;;5049715;28;20509;-74
2023/03/07 01:45:13;;;;;;;19.13;9.13;;;3.70;73.50;;;;;;5044537;28;20510;-72
2023/03/07 01:47:40;;;;;;;23.30;9.17;;;3.80;73.50;;;;;;5026628;28;20261;-72
2023/03/07 01:50:11;;;;;;;18.83;9.07;;;3.70;73.30;;;;;;5049733;28;20219;-74
2023/03/07 01:52:46;;;;;;;18.17;9.00;;;3.70;73.50;;;;;;5047229;28;20919;-74
2023/03/07 01:55:25;;;;;;;17.67;8.50;;;3.70;73.50;;;;;;5047181;28;20415;-71
2023/03/07 01:57:52;;;;;;;13.90;7.50;;;3.70;73.30;;;;;;5046081;28;20458;-73
2023/03/07 02:00:27;;;;;;;21.07;7.57;;;3.70;73.00;;;;;;5031489;28;20427;-73
2023/03/07 02:03:08;;;;;;;19.93;9.63;;;3.70;73.20;;;;;;5031669;28;20445;-74
2023/03/07 02:05:37;;;;;;;19.03;8.70;;;3.60;73.00;;;;;;5047995;28;20407;-71
2023/03/07 02:08:05;;;;;;;19.10;9.10;;;3.60;73.00;;;;;;5042201;28;20501;-72
2023/03/07 02:10:32;;;;;;;18.80;9.20;;;3.60;73.00;;;;;;5047136;28;20427;-72
2023/03/07 02:12:58;;;;;;;16.17;8.13;;;3.70;73.00;;;;;;5053677;28;20423;-72
2023/03/07 02:15:23;;;;;;;17.80;9.20;;;3.60;73.00;;;;;;5054682;28;20488;-73
2023/03/07 02:17:50;;;;;;;16.13;8.10;;;3.70;73.00;;;;;;5048065;28;20232;-71
2023/03/07 02:20:24;;;;;;;16.50;7.90;;;3.70;72.90;;;;;;5051909;28;20264;-73
2023/03/07 02:22:50;;;;;;;17.17;8.40;;;3.80;73.00;;;;;;5062927;28;20477;-73
2023/03/07 02:25:43;;;;;;;18.37;8.20;;;3.70;72.90;;;;;;5049466;28;20477;-75
2023/03/07 02:28:13;;;;;;;16.07;8.07;;;3.70;72.90;;;;;;5050452;28;20664;-72
2023/03/07 02:30:56;;;;;;;16.63;8.53;;;3.70;73.20;;;;;;5062048;28;20438;-73
2023/03/07 02:33:23;;;;;;;15.63;8.57;;;3.60;73.20;;;;;;5052916;28;20503;-73
2023/03/07 02:35:57;;;;;;;18.77;8.53;;;3.70;73.20;;;;;;5051991;28;20472;-72
2023/03/07 02:38:23;;;;;;;17.00;7.63;;;3.70;73.30;;;;;;5044910;28;20952;-72
2023/03/07 02:40:51;;;;;;;20.73;9.80;;;3.70;73.00;;;;;;5053261;28;20988;-73
2023/03/07 02:43:18;;;;;;;21.50;9.87;;;3.70;73.20;;;;;;5052278;28;20466;-74
2023/03/07 02:45:43;;;;;;;19.57;8.63;;;3.60;73.20;;;;;;5032187;28;20438;-71
2023/03/07 02:48:09;;;;;;;21.80;9.30;;;3.60;73.20;;;;;;5046892;28;20462;-74
2023/03/07 02:50:35;;;;;;;18.90;9.33;;;3.60;73.20;;;;;;5053556;28;20862;-72
2023/03/07 02:53:00;;;;;;;23.40;9.50;;;3.60;73.30;;;;;;5026234;28;20260;-71
2023/03/07 02:55:26;;;;;;;19.60;8.60;;;3.60;73.20;;;;;;5051078;28;21035;-73
2023/03/07 02:57:52;;;;;;;21.77;9.47;;;3.50;73.30;;;;;;5051019;28;20204;-71
2023/03/07 03:00:18;;;;;;;17.80;8.73;;;3.60;73.50;;;;;;5052734;28;20180;-71
2023/03/07 03:02:44;;;;;;;18.47;7.83;;;3.60;73.30;;;;;;5049217;28;20423;-72
2023/03/07 03:05:10;;;;;;;23.20;8.83;;;3.70;73.30;;;;;;5031969;28;20463;-72
2023/03/07 03:07:36;;;;;;;20.07;10.80;;;3.70;73.20;;;;;;5044449;28;20733;-73
2023/03/07 03:10:03;;;;;;;19.77;8.70;;;3.70;73.00;;;;;;5034876;28;20431;-73
2023/03/07 03:12:28;;;;;;;18.00;9.27;;;3.60;73.20;;;;;;5050055;28;20419;-73
2023/03/07 03:14:54;;;;;;;20.80;10.07;;;3.60;73.30;;;;;;5034455;28;20477;-74
2023/03/07 03:17:20;;;;;;;20.30;9.67;;;3.60;73.50;;;;;;5048393;28;20228;-72
2023/03/07 03:19:45;;;;;;;23.47;10.00;;;3.60;73.50;;;;;;5033264;28;20977;-72
2023/03/07 03:22:11;;;;;;;18.83;9.70;;;3.60;73.30;;;;;;5050489;28;20204;-72
2023/03/07 03:24:41;;;;;;;19.87;9.93;;;3.50;73.50;;;;;;5051332;28;20208;-74
2023/03/07 03:27:07;;;;;;;23.20;10.40;;;3.50;73.50;;;;;;5050708;28;20226;-73
2023/03/07 03:29:32;;;;;;;20.33;9.70;;;3.50;73.30;;;;;;5054476;28;20415;-71
2023/03/07 03:31:58;;;;;;;21.27;9.00;;;3.50;73.60;;;;;;5050557;28;20430;-73
2023/03/07 03:34:23;;;;;;;20.40;9.40;;;3.50;73.30;;;;;;5055735;28;20195;-71
2023/03/07 03:36:49;;;;;;;22.50;10.80;;;3.50;73.50;;;;;;5052201;28;20242;-72
2023/03/07 03:39:15;;;;;;;23.70;9.97;;;3.50;73.30;;;;;;5051252;28;20272;-72
2023/03/07 03:41:41;;;;;;;20.73;9.60;;;3.60;73.30;;;;;;5049179;28;20914;-72
2023/03/07 03:44:07;;;;;;;21.13;10.13;;;3.60;73.30;;;;;;5048605;28;20208;-71
2023/03/07 03:46:33;;;;;;;20.20;9.13;;;3.60;73.50;;;;;;5050707;28;20260;-71
2023/03/07 03:48:58;;;;;;;22.60;9.40;;;3.60;73.30;;;;;;5044395;28;20538;-71
2023/03/07 03:51:24;;;;;;;16.57;9.53;;;3.60;73.30;;;;;;5031448;28;20201;-72
2023/03/07 03:53:50;;;;;;;21.87;8.87;;;3.60;73.20;;;;;;5051599;28;20196;-72
2023/03/07 03:56:21;;;;;;;20.63;10.77;;;3.60;73.30;;;;;;5050091;28;20423;-72
2023/03/07 03:58:48;;;;;;;20.40;9.30;;;3.60;73.30;;;;;;5042891;28;20501;-71
2023/03/07 04:01:14;;;;;;;20.17;9.77;;;3.60;73.30;;;;;;5046664;28;20481;-72
2023/03/07 04:03:45;;;;;;;21.07;9.80;;;3.60;73.30;;;;;;5034682;28;20470;-73
2023/03/07 04:06:17;;;;;;;20.43;9.63;;;3.60;73.30;;;;;;5044409;28;20444;-71
2023/03/07 04:08:45;;;;;;;22.97;10.30;;;3.60;73.30;;;;;;5025957;28;20463;-72
2023/03/07 04:11:11;;;;;;;17.97;9.40;;;3.60;73.30;;;;;;5049814;28;20477;-72
2023/03/07 04:13:36;;;;;;;24.10;10.53;;;3.60;73.50;;;;;;5051734;28;20433;-73
2023/03/07 04:16:03;;;;;;;20.83;9.60;;;3.60;73.50;;;;;;5052731;28;20419;-73
2023/03/07 04:18:29;;;;;;;22.37;9.43;;;3.50;73.50;;;;;;5033341;28;20208;-71
2023/03/07 04:20:55;;;;;;;21.23;9.60;;;3.60;73.60;;;;;;5035580;28;20981;-72
2023/03/07 04:23:22;;;;;;;24.17;10.10;;;3.60;73.60;;;;;;5050331;28;20226;-73
2023/03/07 04:25:55;;;;;;;25.13;10.17;;;3.60;73.50;;;;;;5034182;28;20538;-73
2023/03/07 04:28:23;;;;;;;19.57;9.80;;;3.60;73.60;;;;;;5047709;28;20459;-73
2023/03/07 04:30:48;;;;;;;19.93;8.83;;;3.60;73.50;;;;;;5052347;28;20425;-71
2023/03/07 04:33:15;;;;;;;23.37;9.20;;;3.60;73.30;;;;;;5048457;28;20439;-74
2023/03/07 04:35:41;;;;;;;21.50;9.93;;;3.60;73.50;;;;;;5049337;28;20275;-71
2023/03/07 04:38:07;;;;;;;19.93;9.60;;;3.70;73.20;;;;;;5046435;28;20552;-73
2023/03/07 04:40:33;;;;;;;24.10;10.33;;;3.70;73.20;;;;;;5050314;28;20596;-74
2023/03/07 04:42:59;;;;;;;25.13;10.80;;;3.70;73.20;;;;;;5053922;28;20431;-73
2023/03/07 04:45:24;;;;;;;24.73;10.60;;;3.80;72.90;;;;;;5055317;28;20429;-73
2023/03/07 04:47:50;;;;;;;21.67;9.50;;;3.80;72.70;;;;;;5036907;28;20220;-73
2023/03/07 04:50:19;;;;;;;20.77;10.27;;;3.80;72.60;;;;;;5058341;28;20609;-73
2023/03/07 04:52:45;;;;;;;26.47;10.37;;;3.80;72.60;;;;;;5059898;28;20226;-73
2023/03/07 04:55:11;;;;;;;22.63;10.43;;;3.80;72.90;;;;;;5066091;28;20419;-73
2023/03/07 04:57:36;;;;;;;18.60;10.23;;;3.80;72.90;;;;;;5048377;28;20251;-73
2023/03/07 05:00:08;;;;;;;25.93;10.30;;;3.80;72.70;;;;;;5032370;28;20493;-74
2023/03/07 05:02:34;;;;;;;18.37;9.67;;;3.80;72.90;;;;;;5051945;28;20542;-72
2023/03/07 05:04:59;;;;;;;20.90;9.90;;;3.80;73.00;;;;;;5055463;28;20513;-73
2023/03/07 05:07:25;;;;;;;26.50;10.73;;;3.70;73.00;;;;;;5051044;28;20462;-73
2023/03/07 05:09:50;;;;;;;22.20;9.33;;;3.70;73.00;;;;;;5057212;28;20188;-70
2023/03/07 05:12:16;;;;;;;22.63;10.13;;;3.70;73.20;;;;;;5037801;28;20267;-72
2023/03/07 05:14:42;;;;;;;26.63;10.73;;;3.70;73.20;;;;;;5031633;28;20180;-72
2023/03/07 05:17:08;;;;;;;26.90;9.73;;;3.70;73.20;;;;;;5061226;28;20586;-73
2023/03/07 05:19:33;;;;;;;21.63;9.67;;;3.60;73.30;;;;;;5055324;28;20191;-71
2023/03/07 05:21:59;;;;;;;16.30;9.27;;;3.60;73.30;;;;;;5046847;28;20804;-72
2023/03/07 05:24:25;;;;;;;25.23;10.47;;;3.60;73.30;;;;;;5046179;28;20209;-74
2023/03/07 05:26:50;;;;;;;23.27;11.00;;;3.60;73.50;;;;;;5048611;28;20197;-75
2023/03/07 05:29:16;;;;;;;22.10;9.70;;;3.60;73.30;;;;;;5052596;28;20651;-74
2023/03/07 05:31:41;;;;;;;23.17;9.97;;;3.60;73.20;;;;;;5047728;28;20196;-69
2023/03/07 05:34:09;;;;;;;20.20;9.60;;;3.60;73.20;;;;;;5046993;28;20191;-73
2023/03/07 05:36:35;;;;;;;19.70;9.70;;;3.60;73.20;;;;;;5041746;28;20181;-73
2023/03/07 05:39:01;;;;;;;18.00;8.83;;;3.70;73.20;;;;;;5042348;28;20463;-72
2023/03/07 05:41:26;;;;;;;22.60;9.83;;;3.70;73.00;;;;;;5049795;28;20255;-73
2023/03/07 05:43:54;;;;;;;24.50;10.30;;;3.60;73.00;;;;;;5049805;28;20204;-73
2023/03/07 05:46:20;;;;;;;21.80;9.90;;;3.60;73.00;;;;;;5048025;28;20522;-73
2023/03/07 05:48:45;;;;;;;20.17;9.40;;;3.70;73.00;;;;;;5044903;28;20458;-73
2023/03/07 05:51:11;;;;;;;22.70;9.10;;;3.70;72.60;;;;;;5047582;28;20423;-73
2023/03/07 05:53:37;;;;;;;27.57;9.80;;;3.70;72.60;;;;;;5046993;28;20192;-74
2023/03/07 05:56:02;;;;;;;20.60;8.67;;;3.70;72.60;;;;;;5049767;28;20185;-73
2023/03/07 05:58:28;;;;;;;19.63;9.60;;;3.70;72.40;;;;;;5034063;28;20254;-73
2023/03/07 06:00:54;;;;;;;18.07;9.00;;;3.60;72.10;;;;;;5036429;28;20426;-75
2023/03/07 06:03:19;;;;;;;22.60;9.50;;;3.70;72.30;;;;;;5053717;28;20208;-74
2023/03/07 06:05:49;;;;;;;20.60;9.40;;;3.70;72.10;;;;;;5054319;28;20239;-74
2023/03/07 06:08:14;;;;;;;21.07;9.13;;;3.70;72.10;;;;;;5050686;28;20207;-73
2023/03/07 06:10:41;;;;;;;19.73;8.83;;;3.70;72.00;;;;;;5055068;28;20419;-73
2023/03/07 06:13:14;;;;;;;17.77;8.27;;;3.70;71.70;;;;;;5052347;28;20178;-74
2023/03/07 06:15:40;;;;;;;26.03;10.40;;;3.70;71.70;;;;;;5053427;28;20422;-72
2023/03/07 06:18:05;;;;;;;20.50;9.83;;;3.70;71.60;;;;;;5054738;28;20450;-74
2023/03/07 06:20:31;;;;;;;20.90;9.40;;;3.70;71.60;;;;;;5049470;28;20187;-72
2023/03/07 06:22:56;;;;;;;21.83;9.07;;;3.70;71.60;;;;;;5038081;28;20616;-72
2023/03/07 06:25:22;;;;;;;17.37;8.13;;;3.70;71.60;;;;;;5053235;28;20213;-73
2023/03/07 06:27:48;;;;;;;16.80;8.70;;;3.70;71.40;;;;;;5035809;28;20212;-73
2023/03/07 06:30:14;;;;;;;18.50;9.40;;;3.80;71.40;;;;;;5056650;28;20259;-73
2023/03/07 06:32:39;;;;;;;17.80;8.77;;;3.80;71.40;;;;;;5030337;28;20427;-74
2023/03/07 06:35:05;;;;;;;18.90;8.80;;;3.80;71.40;;;;;;5053061;28;20188;-74
2023/03/07 06:37:31;;;;;;;18.37;9.70;;;3.80;71.30;;;;;;5050745;28;20208;-73
2023/03/07 06:39:56;;;;;;;21.80;9.07;;;3.80;71.30;;;;;;5053873;28;20898;-73
2023/03/07 06:42:23;;;;;;;18.03;8.67;;;3.90;71.30;;;;;;5056556;28;20208;-75
2023/03/07 06:44:49;;;;;;;23.63;10.10;;;3.80;71.30;;;;;;5048652;28;20985;-74
2023/03/07 06:47:14;;;;;;;19.07;8.20;;;3.80;71.40;;;;;;5048659;28;20607;-74
2023/03/07 06:49:40;;;;;;;22.90;9.77;;;3.80;71.30;;;;;;5053051;28;20185;-72
2023/03/07 06:52:05;;;;;;;21.33;9.00;;;3.90;71.30;;;;;;5054229;28;20176;-75
2023/03/07 06:54:31;;;;;;;22.70;9.00;;;3.90;71.10;;;;;;5052015;28;20199;-74
2023/03/07 06:56:57;;;;;;;16.47;8.37;;;3.90;71.10;;;;;;5047956;28;20231;-72
2023/03/07 06:59:22;;;;;;;24.00;8.30;;;4.00;71.10;;;;;;5047083;28;20183;-74
2023/03/07 07:01:48;;;;;;;20.30;8.80;;;4.00;70.70;;;;;;5050309;28;20200;-73
2023/03/07 07:04:13;;;;;;;23.43;9.17;;;4.00;70.50;;;;;;5048024;28;20761;-74
2023/03/07 07:06:39;;;;;;;19.77;8.80;;;4.00;70.50;;;;;;5048126;28;20184;-74
2023/03/07 07:09:05;;;;;;;19.33;8.67;;;4.10;70.70;;;;;;5051489;28;20208;-75
2023/03/07 07:11:31;;;;;;;17.87;9.07;;;4.20;70.70;;;;;;5023754;28;20184;-74
2023/03/07 07:13:56;;;;;;;20.20;8.57;;;4.20;70.50;;;;;;5050395;28;20287;-74
2023/03/07 07:16:22;;;;;;;18.60;8.37;;;4.30;70.50;;;;;;5054630;28;20435;-73
2023/03/07 07:18:51;;;;;;;19.07;8.43;;;4.20;70.40;;;;;;5052202;28;20200;-76
2023/03/07 07:21:16;;;;;;;17.57;9.07;;;4.30;70.70;;;;;;5054205;28;20203;-72
2023/03/07 07:23:42;;;;;;;17.53;9.20;;;4.40;70.20;;;;;;5040167;28;20471;-72
2023/03/07 07:26:08;;;;;;;23.10;10.33;;;4.40;70.20;;;;;;5038771;28;20214;-71
2023/03/07 07:28:33;;;;;;;23.83;9.50;;;4.40;70.20;;;;;;5054595;28;20215;-74
2023/03/07 07:30:59;;;;;;;18.87;8.40;;;4.50;70.20;;;;;;5057581;28;20184;-73
2023/03/07 07:33:25;;;;;;;22.80;8.47;;;4.50;70.20;;;;;;5054888;28;20210;-73
2023/03/07 07:35:50;;;;;;;23.30;10.57;;;4.50;69.50;;;;;;5052033;28;20234;-73
2023/03/07 07:38:16;;;;;;;21.37;8.73;;;4.50;69.70;;;;;;5049834;28;20306;-74
2023/03/07 07:40:43;;;;;;;19.67;9.80;;;4.60;69.80;;;;;;5051295;28;20200;-74
2023/03/07 07:43:15;;;;;;;18.83;8.73;;;4.60;69.50;;;;;;5054355;28;20196;-74
2023/03/07 07:45:40;;;;;;;23.13;8.20;;;4.70;69.70;;;;;;5029624;28;20423;-75
2023/03/07 07:48:06;;;;;;;19.80;8.43;;;4.80;69.50;;;;;;5036033;28;20473;-73
2023/03/07 07:50:32;;;;;;;19.03;8.00;;;4.80;69.10;;;;;;5055713;28;20419;-72
2023/03/07 07:52:57;;;;;;;22.30;8.77;;;4.80;69.10;;;;;;5054662;28;20419;-74
2023/03/07 07:55:23;;;;;;;19.43;8.83;;;4.80;69.10;;;;;;5054451;28;20248;-74
2023/03/07 07:57:50;;;;;;;19.83;7.97;;;4.90;69.20;;;;;;5043244;28;20755;-74
2023/03/07 08:00:20;;;;;;;20.80;8.67;;;4.90;68.90;;;;;;5058643;28;20428;-74
2023/03/07 08:02:49;;;;;;;22.47;9.77;;;5.00;68.90;;;;;;5052821;28;20466;-73
2023/03/07 08:05:17;;;;;;;19.10;7.93;;;5.00;68.50;;;;;;5036445;28;20464;-74
2023/03/07 08:07:43;;;;;;;19.90;8.27;;;5.00;68.90;;;;;;5061950;28;20455;-73
2023/03/07 08:10:09;;;;;;;16.43;8.40;;;5.00;68.60;;;;;;5052936;28;20434;-74
2023/03/07 08:12:35;;;;;;;21.10;9.07;;;5.10;68.60;;;;;;5058485;28;20204;-74
2023/03/07 08:15:01;;;;;;;18.43;8.33;;;5.10;68.30;;;;;;5060593;28;20446;-74
2023/03/07 08:17:29;;;;;;;27.43;8.20;;;5.20;68.30;;;;;;5056000;28;20204;-73
2023/03/07 08:20:00;;;;;;;23.17;8.67;;;5.20;68.30;;;;;;5061340;28;20432;-74
2023/03/07 08:22:26;;;;;;;20.33;8.80;;;5.30;68.20;;;;;;5064415;28;20450;-73
2023/03/07 08:24:51;;;;;;;15.37;7.40;;;5.40;67.70;;;;;;5039125;28;20501;-73
2023/03/07 08:27:17;;;;;;;18.33;9.03;;;5.50;67.70;;;;;;5049894;28;20463;-72
2023/03/07 08:29:47;;;;;;;16.80;8.53;;;5.50;67.20;;;;;;5046917;28;20262;-72
2023/03/07 08:32:14;;;;;;;17.70;8.33;;;5.60;67.20;;;;;;5053046;28;20659;-73
2023/03/07 08:34:39;;;;;;;20.93;8.50;;;5.60;66.90;;;;;;5050595;28;20945;-73
2023/03/07 08:37:05;;;;;;;21.80;9.20;;;5.70;67.20;;;;;;5046378;28;20447;-73
2023/03/07 08:39:30;;;;;;;13.90;8.07;;;5.80;66.90;;;;;;5048550;28;20647;-72
2023/03/07 08:41:56;;;;;;;20.03;9.40;;;5.90;66.30;;;;;;5050421;28;20192;-72
2023/03/07 08:44:21;;;;;;;20.00;9.40;;;5.80;66.00;;;;;;5049745;28;20256;-73
2023/03/07 08:46:47;;;;;;;23.47;8.70;;;5.80;66.40;;;;;;5046901;28;20184;-73
2023/03/07 08:49:12;;;;;;;21.80;8.47;;;5.80;66.40;;;;;;5049262;28;20196;-72
2023/03/07 08:51:38;;;;;;;14.47;7.67;;;5.80;66.00;;;;;;5051849;28;20188;-72
2023/03/07 08:54:03;;;;;;;20.87;8.73;;;5.80;65.40;;;;;;5050946;28;20188;-72
2023/03/07 08:56:29;;;;;;;16.03;7.13;;;5.80;65.40;;;;;;5050950;28;20187;-73
2023/03/07 08:58:55;;;;;;;15.30;7.40;;;5.80;65.00;;;;;;5047989;28;20699;-73
2023/03/07 09:01:20;;;;;;;17.33;8.00;;;5.80;65.10;;;;;;5051044;28;20729;-73
2023/03/07 09:03:46;;;;;;;16.10;7.73;;;5.90;64.80;;;;;;5051268;28;20212;-75
2023/03/07 09:06:17;;;;;;;17.53;8.07;;;5.80;65.00;;;;;;5050479;28;20191;-73
2023/03/07 09:08:43;;;;;;;27.30;8.10;;;5.90;65.00;;;;;;5045010;28;20353;-72
2023/03/07 09:11:09;;;;;;;17.73;8.50;;;6.00;64.40;;;;;;5050213;28;20427;-74
2023/03/07 09:13:34;;;;;;;19.83;7.60;;;5.90;64.40;;;;;;5049827;28;20633;-74
2023/03/07 09:16:03;;;;;;;16.53;6.90;;;6.00;63.80;;;;;;5051113;28;20242;-73
2023/03/07 09:18:29;;;;;;;12.80;6.40;;;6.10;61.90;;;;;;5048767;28;20219;-73
2023/03/07 09:20:58;;;;;;;17.90;7.80;;;5.90;61.00;;;;;;5050508;28;20922;-72
2023/03/07 09:23:24;;;;;;;14.60;7.27;;;5.80;61.90;;;;;;5046343;28;20683;-72
2023/03/07 09:25:50;;;;;;;15.23;7.50;;;5.80;62.20;;;;;;5051074;28;20421;-73
2023/03/07 09:28:15;;;;;;;14.43;7.40;;;6.00;61.60;;;;;;5051493;28;20197;-74
2023/03/07 09:30:41;;;;;;;23.30;6.90;;;6.00;60.90;;;;;;5049024;28;20873;-72
2023/03/07 09:33:07;;;;;;;18.30;8.00;;;5.90;60.60;;;;;;5044637;28;20199;-73
2023/03/07 09:35:32;;;;;;;12.87;6.30;;;6.00;60.40;;;;;;5030706;28;20186;-72
2023/03/07 09:37:58;;;;;;;14.87;7.50;;;6.00;60.00;;;;;;5030129;28;20647;-73
2023/03/07 09:40:26;;;;;;;14.00;6.63;;;6.00;59.90;;;;;;5045036;28;20200;-73
2023/03/07 09:43:03;;;;;;;10.93;5.87;;;6.00;60.10;;;;;;5051447;28;20426;-75
2023/03/07 09:45:51;;;;;;;11.90;6.57;;;6.00;60.10;;;;;;5050699;28;20458;-75
2023/03/07 09:48:34;;;;;;;14.27;6.87;;;5.80;60.00;;;;;;5043868;28;20464;-73
2023/03/07 09:51:11;;;;;;;12.43;5.83;;;5.70;60.70;;;;;;5046182;28;20419;-71
2023/03/07 09:54:01;;;;;;;13.70;6.50;;;5.80;60.70;;;;;;5043956;28;20849;-73
2023/03/07 09:56:47;;;;;;;14.20;6.00;;;5.90;60.40;;;;;;5045967;28;20422;-74
2023/03/07 09:59:40;;;;;;;12.17;6.20;;;5.80;60.10;;;;;;5044729;28;20478;-73
2023/03/07 10:02:48;;;;;;;10.77;5.40;;;5.80;60.70;;;;;;5037313;28;20578;-74
2023/03/07 10:05:31;;;;;;;12.17;6.03;;;5.90;60.30;;;;;;5039932;28;20565;-73
2023/03/07 10:07:59;;;;;;;11.87;5.97;;;5.80;59.90;;;;;;5042962;28;20466;-71
2023/03/07 10:10:40;;;;;;;13.27;6.00;;;5.80;60.00;;;;;;5048033;28;20952;-72
2023/03/07 10:13:31;;;;;;;14.17;5.83;;;5.70;59.90;;;;;;5045473;28;20452;-75
2023/03/07 10:16:01;;;;;;;12.63;5.67;;;5.60;59.70;;;;;;5042941;28;20434;-72
2023/03/07 10:18:45;;;;;;;15.07;7.17;;;5.60;59.70;;;;;;5044378;28;20592;-73
2023/03/07 10:22:05;;;;;;;14.83;6.77;;;5.50;60.10;;;;;;5049169;28;20427;-73
2023/03/07 10:24:46;;;;;;;12.27;6.40;;;5.70;60.00;;;;;;4963879;28;21057;-74
2023/03/07 10:27:13;;;;;;;10.07;6.17;;;5.70;59.50;;;;;;4965609;28;20636;-72
2023/03/07 10:29:48;;;;;;;13.93;6.93;;;5.70;59.50;;;;;;4968989;28;20430;-74
2023/03/07 10:32:40;;;;;;;11.57;5.87;;;5.60;59.20;;;;;;4959318;28;20457;-71
2023/03/07 10:35:11;;;;;;;11.73;6.03;;;5.70;58.70;;;;;;4958806;28;20570;-73
2023/03/07 10:37:51;;;;;;;17.00;6.30;;;5.70;58.70;;;;;;4962029;28;20573;-73
2023/03/07 10:40:20;;;;;;;18.43;6.90;;;5.70;58.80;;;;;;4964048;28;20934;-72
2023/03/07 10:42:46;;;;;;;14.20;6.00;;;5.60;59.90;;;;;;4970950;28;20433;-73
2023/03/07 10:45:15;;;;;;;18.50;7.37;;;5.60;60.40;;;;;;4949934;28;20943;-71
2023/03/07 10:47:41;;;;;;;16.63;7.13;;;5.60;60.60;;;;;;4975999;28;20482;-72
2023/03/07 10:50:58;;;;;;;14.67;7.40;;;5.60;58.70;;;;;;4977901;28;20442;-73
2023/03/07 10:53:27;;;;;;;16.20;6.90;;;5.70;59.70;;;;;;4923704;29;20451;-72
2023/03/07 10:56:14;;;;;;;13.53;6.77;;;5.80;61.00;;;;;;4970300;28;20441;-74
2023/03/07 10:58:58;;;;;;;15.70;6.83;;;5.70;60.60;;;;;;5015052;28;20489;-72
2023/03/07 11:01:26;;;;;;;17.70;7.23;;;5.60;60.30;;;;;;5053377;28;20434;-73
2023/03/07 11:04:04;;;;;;;15.77;7.20;;;5.60;59.70;;;;;;5054346;28;20462;-73
2023/03/07 11:06:39;;;;;;;13.70;6.87;;;5.70;58.90;;;;;;5054633;28;20989;-74
2023/03/07 11:09:27;;;;;;;14.80;7.33;;;5.70;58.20;;;;;;5051223;28;20486;-72
2023/03/07 11:12:05;;;;;;;13.90;6.33;;;5.70;58.40;;;;;;5044696;28;20415;-73
2023/03/07 11:14:48;;;;;;;15.33;7.20;;;5.70;58.10;;;;;;5035534;28;20419;-73
2023/03/07 11:17:21;;;;;;;15.87;7.00;;;5.50;58.10;;;;;;5051677;28;20466;-73
2023/03/07 11:19:52;;;;;;;14.70;6.80;;;5.60;58.20;;;;;;5030466;28;20430;-73
2023/03/07 11:22:23;;;;;;;14.10;7.43;;;5.70;58.10;;;;;;5049335;28;20432;-73
2023/03/07 11:25:25;;;;;;;17.73;7.37;;;5.70;57.60;;;;;;5047093;28;20977;-74
2023/03/07 11:27:56;;;;;;;12.47;7.13;;;5.70;57.40;;;;;;5051822;28;20469;-73
2023/03/07 11:30:46;;;;;;;12.20;6.60;;;5.70;57.60;;;;;;5055093;28;20427;-73
2023/03/07 11:33:20;;;;;;;12.10;6.80;;;5.80;57.60;;;;;;5050924;28;20443;-72
2023/03/07 11:35:49;;;;;;;17.97;6.87;;;5.70;57.60;;;;;;5049135;28;20483;-73
2023/03/07 11:38:18;;;;;;;14.50;6.53;;;5.70;57.60;;;;;;5056574;28;20462;-72
2023/03/07 11:41:10;;;;;;;14.23;7.40;;;5.70;57.30;;;;;;5057666;28;20514;-73
2023/03/07 11:43:55;;;;;;;12.80;6.07;;;5.70;57.40;;;;;;5053679;28;20459;-74
2023/03/07 11:46:46;;;;;;;12.10;7.00;;;5.80;57.40;;;;;;5057632;28;20426;-72
2023/03/07 11:49:26;;;;;;;11.80;6.43;;;5.90;56.90;;;;;;5056176;28;20435;-72
2023/03/07 11:52:14;;;;;;;12.13;6.73;;;5.80;56.80;;;;;;5057918;28;20418;-73
2023/03/07 11:54:52;;;;;;;15.60;6.90;;;5.80;56.90;;;;;;5055668;28;20436;-73
2023/03/07 11:57:23;;;;;;;12.67;5.43;;;5.70;56.80;;;;;;5049757;28;20462;-73
2023/03/07 12:00:14;;;;;;;13.43;7.30;;;5.70;56.90;;;;;;5052266;28;20423;-73
2023/03/07 12:03:01;;;;;;;13.43;5.73;;;5.70;56.90;;;;;;5045941;28;20430;-73
2023/03/07 12:05:41;;;;;;;11.73;6.20;;;5.80;56.50;;;;;;5051939;28;20466;-73
2023/03/07 12:08:41;;;;;;;16.70;6.10;;;5.80;56.20;;;;;;5050267;28;20976;-72
2023/03/07 12:11:12;;;;;;;14.53;6.13;;;5.70;55.60;;;;;;5043444;28;20412;-73
2023/03/07 12:13:53;;;;;;;15.60;7.50;;;5.80;55.80;;;;;;5052208;28;20571;-73
2023/03/07 12:16:40;;;;;;;18.60;7.30;;;5.80;56.20;;;;;;5033873;28;20438;-72
2023/03/07 12:19:22;;;;;;;14.00;6.90;;;5.90;56.40;;;;;;5049292;28;20465;-74
2023/03/07 12:22:23;;;;;;;15.17;6.60;;;6.00;55.70;;;;;;5029633;28;20780;-73
2023/03/07 12:25:08;;;;;;;16.43;6.80;;;5.90;55.60;;;;;;5044546;28;20462;-73
2023/03/07 12:27:47;;;;;;;12.67;6.77;;;5.80;55.80;;;;;;5044257;28;20478;-71
2023/03/07 12:30:21;;;;;;;14.00;7.10;;;5.80;55.80;;;;;;5051322;28;20418;-74
2023/03/07 12:32:49;;;;;;;15.33;6.23;;;5.80;56.00;;;;;;5050077;28;20430;-74
2023/03/07 12:35:19;;;;;;;12.50;5.70;;;5.80;55.70;;;;;;5033927;28;20439;-74
2023/03/07 12:37:54;;;;;;;17.00;7.13;;;5.90;55.80;;;;;;5049739;28;20974;-73
2023/03/07 12:40:27;;;;;;;12.60;6.43;;;6.10;55.20;;;;;;5051471;28;20877;-73
2023/03/07 12:43:06;;;;;;;13.60;6.50;;;6.10;54.90;;;;;;5032512;28;20410;-73
2023/03/07 12:45:54;;;;;;;17.60;6.70;;;6.30;54.60;;;;;;5044146;28;20494;-73
2023/03/07 12:48:25;;;;;;;12.57;5.87;;;6.60;54.20;;;;;;5043531;28;20467;-73
2023/03/07 12:51:10;;;;;;;55.77;7.73;;;6.80;53.70;;;;;;5050160;28;20476;-75
2023/03/07 12:53:54;;;;;;;15.83;6.90;;;7.00;53.30;;;;;;5038107;28;20934;-74
2023/03/07 12:56:33;;;;;;;14.13;6.53;;;6.90;52.80;;;;;;5032626;28;20431;-73
2023/03/07 12:59:11;;;;;;;12.93;6.50;;;6.90;53.30;;;;;;5043066;28;20993;-74